Time;durP1;ratioP1;P1;durP2;ratioP2;P2;SDS_P1;SDS_P2;PMS_P1;PMS_P2;Temp;Humidity;BMP_temperature;BMP_pressure;BME280_temperature;BME280_humidity;BME280_pressure;Samples;Min_cycle;Max_cycle;Signal;HPM_P1;HPM_P2
2022/04/30 00:02:08;;;;;;;0.80;0.80;;;11.60;88.60;;;;;;5111793;28;20617;-86
2022/04/30 00:04:35;;;;;;;1.03;1.03;;;11.60;89.40;;;;;;5108370;28;21031;-86
2022/04/30 00:07:05;;;;;;;0.60;0.60;;;11.60;89.30;;;;;;5111173;28;20764;-86
2022/04/30 00:09:35;;;;;;;0.30;0.20;;;11.60;90.70;;;;;;5111358;28;20656;-85
2022/04/30 00:12:05;;;;;;;2.00;0.60;;;11.60;90.60;;;;;;5111532;28;20620;-86
2022/04/30 00:14:34;;;;;;;0.70;0.70;;;11.60;90.60;;;;;;5099536;28;20952;-85
2022/04/30 00:17:02;;;;;;;1.23;0.97;;;11.60;90.50;;;;;;5102875;28;21064;-86
2022/04/30 00:19:29;;;;;;;0.73;0.73;;;11.50;90.70;;;;;;5111366;28;21118;-86
2022/04/30 00:21:57;;;;;;;1.00;0.97;;;11.50;90.70;;;;;;5110965;28;20610;-87
2022/04/30 00:24:27;;;;;;;0.70;0.67;;;11.40;90.60;;;;;;5110945;28;20626;-85
2022/04/30 00:26:56;;;;;;;1.07;1.07;;;11.50;90.80;;;;;;5110907;28;20756;-85
2022/04/30 00:29:24;;;;;;;1.40;0.60;;;11.50;90.50;;;;;;5110525;28;20632;-85
2022/04/30 00:31:52;;;;;;;0.77;0.77;;;11.40;90.70;;;;;;5111188;28;20643;-86
2022/04/30 00:34:20;;;;;;;3.63;1.90;;;11.40;90.60;;;;;;5111378;28;20726;-86
2022/04/30 00:36:47;;;;;;;0.67;0.67;;;11.10;91.40;;;;;;5110741;28;20656;-86
2022/04/30 00:39:15;;;;;;;1.13;0.70;;;11.10;92.20;;;;;;5111219;28;20715;-86
2022/04/30 00:41:44;;;;;;;0.50;0.50;;;11.00;91.90;;;;;;5110593;28;20631;-87
2022/04/30 00:44:11;;;;;;;0.67;0.60;;;11.00;91.20;;;;;;5111280;28;20651;-86
2022/04/30 00:46:38;;;;;;;0.80;0.80;;;11.10;91.30;;;;;;5110281;28;20682;-86
2022/04/30 00:49:07;;;;;;;0.53;0.53;;;11.00;91.30;;;;;;5110975;28;20887;-86
2022/04/30 00:51:39;;;;;;;0.87;0.87;;;11.00;90.50;;;;;;5109297;28;21208;-85
2022/04/30 00:54:07;;;;;;;0.60;0.60;;;11.00;90.30;;;;;;5110764;28;20599;-85
2022/04/30 00:56:36;;;;;;;0.30;0.20;;;11.00;89.40;;;;;;5109479;28;20644;-86
2022/04/30 00:59:05;;;;;;;1.10;0.73;;;10.90;88.70;;;;;;5110534;28;20722;-85
2022/04/30 01:01:33;;;;;;;1.43;1.30;;;11.00;87.70;;;;;;5109648;28;20615;-85
2022/04/30 01:04:00;;;;;;;0.90;0.67;;;11.10;87.40;;;;;;5110819;28;20612;-86
2022/04/30 01:06:43;;;;;;;0.40;0.37;;;11.10;87.60;;;;;;5102463;28;20619;-86
2022/04/30 01:09:10;;;;;;;1.47;1.10;;;11.10;87.80;;;;;;5111263;28;20632;-86
2022/04/30 01:11:38;;;;;;;1.63;0.90;;;11.10;87.50;;;;;;5109327;28;20661;-85
2022/04/30 01:14:08;;;;;;;1.50;0.93;;;11.20;86.80;;;;;;5110572;28;20722;-86
2022/04/30 01:16:36;;;;;;;0.30;0.30;;;11.10;87.20;;;;;;5109796;28;20992;-86
2022/04/30 01:19:05;;;;;;;1.50;1.40;;;11.20;87.80;;;;;;5110579;28;20979;-85
2022/04/30 01:21:34;;;;;;;0.70;0.50;;;11.20;87.50;;;;;;5109939;28;20615;-85
2022/04/30 01:24:04;;;;;;;1.83;1.73;;;11.10;88.10;;;;;;5110371;28;20618;-85
2022/04/30 01:26:32;;;;;;;0.83;0.70;;;11.10;88.40;;;;;;5108789;28;20689;-86
2022/04/30 01:29:00;;;;;;;0.40;0.33;;;11.20;88.90;;;;;;5110684;28;20681;-86
2022/04/30 01:39:40;;;;;;;0.68;0.43;;;11.10;91.30;;;;;;5092534;28;20624;-85
2022/04/30 01:42:11;;;;;;;1.03;1.00;;;11.10;91.80;;;;;;5094382;28;20196;-85
2022/04/30 01:44:41;;;;;;;0.40;0.40;;;11.00;92.10;;;;;;5110367;28;21143;-84
2022/04/30 01:47:08;;;;;;;1.47;1.40;;;10.90;92.40;;;;;;5108915;28;20683;-86
2022/04/30 01:49:35;;;;;;;4.67;0.73;;;11.00;92.80;;;;;;5109854;28;20615;-86
2022/04/30 01:52:07;;;;;;;1.43;0.53;;;11.00;93.40;;;;;;5108686;28;20797;-86
2022/04/30 01:54:34;;;;;;;0.80;0.67;;;11.00;93.50;;;;;;5104402;28;21055;-87
2022/04/30 01:57:03;;;;;;;0.97;0.93;;;10.90;93.80;;;;;;5089366;28;20612;-86
2022/04/30 01:59:30;;;;;;;4.13;0.93;;;11.00;94.10;;;;;;5100976;28;20618;-86
2022/04/30 02:01:58;;;;;;;2.97;1.45;;;10.90;94.40;;;;;;5110325;28;20247;-86
2022/04/30 02:04:25;;;;;;;0.65;0.65;;;10.90;94.60;;;;;;5108249;28;20209;-85
2022/04/30 02:06:53;;;;;;;2.58;1.45;;;10.90;94.90;;;;;;5089763;28;20640;-85
2022/04/30 02:09:20;;;;;;;0.40;0.37;;;10.90;95.20;;;;;;5108500;28;20217;-85
2022/04/30 02:11:48;;;;;;;0.37;0.33;;;10.90;95.40;;;;;;5109699;28;20730;-87
2022/04/30 02:14:17;;;;;;;1.47;0.63;;;10.90;95.60;;;;;;5109500;28;20619;-85
2022/04/30 02:16:46;;;;;;;0.70;0.70;;;10.90;95.70;;;;;;5109190;28;20616;-86
2022/04/30 02:19:14;;;;;;;1.30;1.20;;;10.90;95.60;;;;;;5109467;28;20980;-86
2022/04/30 02:21:41;;;;;;;0.80;0.80;;;10.80;95.70;;;;;;5108975;28;20623;-86
2022/04/30 02:24:08;;;;;;;0.40;0.40;;;10.80;96.00;;;;;;5109300;28;21234;-86
2022/04/30 02:26:35;;;;;;;0.80;0.80;;;10.80;96.20;;;;;;5108508;28;20619;-86
2022/04/30 02:29:02;;;;;;;1.20;0.88;;;10.80;96.40;;;;;;5109629;28;20821;-85
2022/04/30 02:31:30;;;;;;;2.07;1.97;;;10.70;96.50;;;;;;5108886;28;20190;-85
2022/04/30 02:33:57;;;;;;;1.57;1.47;;;10.70;96.70;;;;;;5108555;28;20628;-85
2022/04/30 02:36:26;;;;;;;1.33;1.23;;;10.70;96.60;;;;;;5107673;28;20626;-84
2022/04/30 02:38:54;;;;;;;1.35;1.08;;;10.70;96.40;;;;;;5109116;28;20628;-85
2022/04/30 02:41:21;;;;;;;0.93;0.93;;;10.80;96.40;;;;;;5095869;28;20199;-86
2022/04/30 02:43:49;;;;;;;0.73;0.73;;;10.70;96.40;;;;;;5103717;28;20276;-84
2022/04/30 02:46:16;;;;;;;0.50;0.50;;;10.70;96.50;;;;;;5108446;28;20977;-87
2022/04/30 02:48:44;;;;;;;1.10;1.07;;;10.70;96.30;;;;;;5107960;28;20237;-84
2022/04/30 02:51:11;;;;;;;3.13;1.40;;;10.70;96.40;;;;;;5108638;28;20727;-86
2022/04/30 02:53:38;;;;;;;0.53;0.53;;;10.70;96.50;;;;;;5106822;28;20208;-86
2022/04/30 02:56:05;;;;;;;0.82;0.82;;;10.70;96.50;;;;;;5108382;28;21161;-86
2022/04/30 03:01:19;;;;;;;2.60;1.20;;;10.70;96.70;;;;;;5108187;28;20696;-85
2022/04/30 03:03:47;;;;;;;1.00;0.90;;;10.70;96.60;;;;;;5108530;28;20218;-86
2022/04/30 03:06:16;;;;;;;0.50;0.50;;;10.70;96.80;;;;;;5090828;28;20213;-86
2022/04/30 03:08:46;;;;;;;1.10;1.10;;;10.70;97.00;;;;;;5099152;28;21294;-84
2022/04/30 03:11:13;;;;;;;0.40;0.40;;;10.60;96.90;;;;;;5108736;28;20623;-85
2022/04/30 03:13:41;;;;;;;0.60;0.60;;;10.70;97.00;;;;;;5107978;28;20619;-84
2022/04/30 03:21:44;;;;;;;3.30;2.73;;;10.70;97.50;;;;;;5108853;28;20205;-86
2022/04/30 03:24:12;;;;;;;2.83;2.22;;;10.60;97.50;;;;;;5107945;28;21046;-86
2022/04/30 03:26:39;;;;;;;0.70;0.52;;;10.50;97.90;;;;;;5107159;28;20190;-86
2022/04/30 03:29:06;;;;;;;1.98;1.70;;;10.50;98.30;;;;;;5107835;28;20267;-85
2022/04/30 03:31:32;;;;;;;1.15;1.05;;;10.40;98.50;;;;;;5107733;28;20229;-86
2022/04/30 03:34:01;;;;;;;3.47;1.70;;;10.50;99.00;;;;;;5107870;28;20190;-85
2022/04/30 03:36:29;;;;;;;1.30;0.95;;;10.50;99.00;;;;;;5107422;28;20198;-86
2022/04/30 03:38:56;;;;;;;0.60;0.60;;;10.40;99.10;;;;;;5107266;28;20498;-86
2022/04/30 03:41:23;;;;;;;0.73;0.60;;;10.40;99.30;;;;;;5104661;28;20305;-85
2022/04/30 03:43:50;;;;;;;1.40;1.30;;;10.40;99.50;;;;;;5108605;28;20711;-86
2022/04/30 03:46:17;;;;;;;1.85;1.05;;;10.40;99.50;;;;;;5107260;28;20194;-86
2022/04/30 03:48:44;;;;;;;0.70;0.70;;;10.40;99.90;;;;;;5107712;28;20228;-85
2022/04/30 03:51:13;;;;;;;0.70;0.50;;;10.40;99.90;;;;;;5107330;28;20273;-84
2022/04/30 03:53:41;;;;;;;0.30;0.30;;;10.40;99.90;;;;;;5106187;28;20630;-85
2022/04/30 03:56:08;;;;;;;0.50;0.30;;;10.40;99.90;;;;;;5107022;28;20329;-86
2022/04/30 03:58:35;;;;;;;0.60;0.57;;;10.30;99.90;;;;;;5107659;28;20501;-85
2022/04/30 04:01:02;;;;;;;2.08;1.05;;;10.40;99.90;;;;;;5107839;28;20796;-85
2022/04/30 04:03:28;;;;;;;2.60;2.40;;;10.30;99.90;;;;;;5107567;28;20281;-86
2022/04/30 04:05:57;;;;;;;0.40;0.30;;;10.40;99.90;;;;;;5106261;28;20742;-85
2022/04/30 04:08:25;;;;;;;0.65;0.65;;;10.30;99.90;;;;;;5106772;28;20659;-85
2022/04/30 04:10:52;;;;;;;0.70;0.70;;;10.30;99.90;;;;;;5108121;28;20200;-86
2022/04/30 04:18:51;;;;;;;2.10;1.40;;;10.30;99.90;;;;;;5108038;28;20240;-86
2022/04/30 04:21:18;;;;;;;1.33;1.23;;;10.20;99.90;;;;;;5108332;28;20186;-86
2022/04/30 04:26:31;;;;;;;1.25;0.82;;;10.30;99.90;;;;;;5106679;28;20225;-86
2022/04/30 04:28:58;;;;;;;1.52;1.42;;;10.30;99.90;;;;;;5107507;28;20622;-86
2022/04/30 04:31:25;;;;;;;3.17;1.85;;;10.20;99.90;;;;;;5108163;28;20284;-85
2022/04/30 04:33:52;;;;;;;1.48;0.95;;;10.10;99.90;;;;;;5108397;28;20198;-86
2022/04/30 04:36:19;;;;;;;0.60;0.60;;;10.10;99.90;;;;;;5106655;28;20684;-86
2022/04/30 04:38:47;;;;;;;1.20;1.08;;;10.10;99.90;;;;;;5107365;28;20258;-86
2022/04/30 04:41:15;;;;;;;0.63;0.63;;;10.20;99.90;;;;;;5101759;28;20186;-86
2022/04/30 04:43:42;;;;;;;1.35;1.08;;;10.10;99.90;;;;;;5108910;28;20217;-87
2022/04/30 04:46:09;;;;;;;1.23;1.10;;;10.20;99.90;;;;;;5110431;28;20198;-86
2022/04/30 04:48:37;;;;;;;1.02;1.02;;;10.20;99.90;;;;;;5111924;28;20322;-86
2022/04/30 04:51:04;;;;;;;1.25;0.90;;;10.20;99.90;;;;;;5111231;28;20247;-86
2022/04/30 04:53:31;;;;;;;3.15;1.67;;;10.20;99.90;;;;;;5109765;28;20258;-86
2022/04/30 04:56:01;;;;;;;1.10;1.02;;;10.10;99.90;;;;;;5109861;28;20402;-86
2022/04/30 04:58:28;;;;;;;1.58;1.48;;;10.10;99.90;;;;;;5110791;28;20208;-87
2022/04/30 05:00:55;;;;;;;0.82;0.82;;;10.10;99.90;;;;;;5111223;28;20247;-87
2022/04/30 05:03:22;;;;;;;1.48;0.98;;;10.10;99.90;;;;;;5110841;28;20259;-86
2022/04/30 05:05:50;;;;;;;0.40;0.30;;;10.10;99.90;;;;;;5098541;28;20217;-86
2022/04/30 05:08:16;;;;;;;1.58;1.48;;;10.10;99.90;;;;;;5110224;28;20221;-87
2022/04/30 05:10:43;;;;;;;1.02;0.73;;;10.20;99.90;;;;;;5110216;28;20692;-87
2022/04/30 05:13:11;;;;;;;0.40;0.38;;;10.20;99.90;;;;;;5110239;28;20269;-87
2022/04/30 05:15:39;;;;;;;1.35;1.25;;;10.10;99.90;;;;;;5109827;28;20462;-87
2022/04/30 05:18:07;;;;;;;0.60;0.60;;;10.20;99.90;;;;;;5110896;28;20206;-88
2022/04/30 05:20:34;;;;;;;1.20;0.95;;;10.20;99.90;;;;;;5110298;28;20217;-87
2022/04/30 05:23:01;;;;;;;0.77;0.77;;;10.20;99.90;;;;;;5109462;28;20221;-87
2022/04/30 05:25:28;;;;;;;1.30;1.20;;;10.20;99.90;;;;;;5110719;28;20616;-88
2022/04/30 05:27:56;;;;;;;1.13;0.73;;;10.30;99.90;;;;;;5110396;28;20681;-88
2022/04/30 05:30:25;;;;;;;0.40;0.40;;;10.30;99.90;;;;;;5110838;28;20623;-88
2022/04/30 05:32:52;;;;;;;1.97;1.00;;;10.30;99.90;;;;;;5110878;28;20624;-88
2022/04/30 05:35:18;;;;;;;4.10;1.90;;;10.30;99.90;;;;;;5110348;28;20616;-88
2022/04/30 05:37:46;;;;;;;0.40;0.30;;;10.30;99.90;;;;;;5109891;28;20242;-88
2022/04/30 05:40:13;;;;;;;2.15;0.70;;;10.20;99.90;;;;;;5106946;28;20670;-88
2022/04/30 05:42:39;;;;;;;1.05;1.02;;;10.20;99.90;;;;;;5102691;28;20194;-88
2022/04/30 05:45:08;;;;;;;1.10;1.00;;;10.20;99.90;;;;;;5110080;28;20660;-88
2022/04/30 05:47:36;;;;;;;1.27;1.20;;;10.30;99.90;;;;;;5110155;28;20197;-88
2022/04/30 05:50:04;;;;;;;0.70;0.70;;;10.30;99.90;;;;;;5109451;28;20249;-88
2022/04/30 05:52:33;;;;;;;0.30;0.22;;;10.30;99.90;;;;;;5109742;28;20202;-88
2022/04/30 05:55:01;;;;;;;2.20;2.05;;;10.20;99.90;;;;;;5109283;28;20657;-87
2022/04/30 05:57:28;;;;;;;0.87;0.87;;;10.10;99.90;;;;;;5108827;28;20186;-87
2022/04/30 05:59:55;;;;;;;0.98;0.75;;;10.20;99.90;;;;;;5109611;28;21081;-86
2022/04/30 06:02:23;;;;;;;0.83;0.83;;;10.20;99.90;;;;;;5109193;28;20182;-87
2022/04/30 06:04:51;;;;;;;4.18;1.38;;;10.30;99.90;;;;;;5108437;28;21185;-87
2022/04/30 06:07:18;;;;;;;0.88;0.75;;;10.30;99.90;;;;;;5109230;28;20286;-88
2022/04/30 06:09:45;;;;;;;1.80;1.70;;;10.30;99.90;;;;;;5109796;28;20240;-88
2022/04/30 06:12:12;;;;;;;2.70;1.77;;;10.30;99.90;;;;;;5110035;28;20735;-88
2022/04/30 06:14:39;;;;;;;1.17;1.07;;;10.30;99.90;;;;;;5108855;28;20620;-88
2022/04/30 06:17:06;;;;;;;1.07;1.07;;;10.30;99.90;;;;;;5106736;28;20685;-87
2022/04/30 06:19:33;;;;;;;0.70;0.70;;;10.20;99.90;;;;;;5107685;28;20711;-87
2022/04/30 06:22:03;;;;;;;0.73;0.73;;;10.30;99.90;;;;;;5108310;28;20663;-88
2022/04/30 06:24:30;;;;;;;1.38;1.02;;;10.20;99.90;;;;;;5108640;28;20622;-88
2022/04/30 06:26:56;;;;;;;1.90;1.23;;;10.30;99.90;;;;;;5107198;28;20198;-88
2022/04/30 06:29:23;;;;;;;0.83;0.60;;;10.20;99.90;;;;;;5108767;28;20679;-87
2022/04/30 06:31:51;;;;;;;0.30;0.20;;;10.40;99.90;;;;;;5108477;28;20620;-87
2022/04/30 06:34:18;;;;;;;2.00;1.53;;;10.50;99.90;;;;;;5090344;28;20624;-88
2022/04/30 06:36:45;;;;;;;0.77;0.60;;;10.50;99.90;;;;;;5100489;28;20751;-88
2022/04/30 06:39:14;;;;;;;0.60;0.60;;;10.50;99.90;;;;;;5109307;28;20720;-87
2022/04/30 06:41:41;;;;;;;3.90;1.13;;;10.60;99.90;;;;;;5109624;28;20616;-87
2022/04/30 06:44:07;;;;;;;1.67;1.30;;;10.60;99.90;;;;;;5109255;28;20652;-88
2022/04/30 06:46:34;;;;;;;1.27;1.20;;;10.80;99.90;;;;;;5109141;28;20652;-88
2022/04/30 06:49:01;;;;;;;0.90;0.90;;;10.90;99.90;;;;;;5108899;28;20744;-87
2022/04/30 06:51:28;;;;;;;3.23;1.17;;;10.90;99.90;;;;;;5108524;28;20627;-88
2022/04/30 06:59:28;;;;;;;1.13;0.90;;;11.10;99.90;;;;;;5108453;28;20630;-86
2022/04/30 07:01:59;;;;;;;1.23;1.13;;;10.90;99.90;;;;;;5109169;28;20616;-88
2022/04/30 07:04:27;;;;;;;1.90;1.17;;;10.90;99.90;;;;;;5106203;28;20989;-87
2022/04/30 07:06:53;;;;;;;0.90;0.73;;;11.00;99.90;;;;;;5096784;28;20612;-86
2022/04/30 07:09:20;;;;;;;0.70;0.63;;;10.70;99.90;;;;;;5107702;28;20770;-86
2022/04/30 07:11:49;;;;;;;0.60;0.60;;;10.70;99.90;;;;;;5108709;28;21205;-86
2022/04/30 07:14:16;;;;;;;2.00;1.90;;;10.70;99.90;;;;;;5109445;28;20723;-86
2022/04/30 07:16:43;;;;;;;3.70;1.37;;;10.70;99.90;;;;;;5108724;28;20635;-86
2022/04/30 07:19:10;;;;;;;0.40;0.40;;;10.70;99.90;;;;;;5109001;28;20654;-86
2022/04/30 07:21:37;;;;;;;1.27;1.20;;;10.70;99.90;;;;;;5108733;28;20734;-86
2022/04/30 07:24:04;;;;;;;2.75;2.30;;;10.60;99.90;;;;;;5108570;28;20785;-86
2022/04/30 07:26:31;;;;;;;1.17;0.77;;;10.60;99.90;;;;;;5110060;28;20614;-87
2022/04/30 07:29:00;;;;;;;1.03;0.93;;;10.60;99.90;;;;;;5109453;28;20667;-86
2022/04/30 07:31:26;;;;;;;1.13;1.10;;;10.60;99.90;;;;;;5108999;28;20634;-86
2022/04/30 07:33:54;;;;;;;1.43;0.90;;;10.70;99.90;;;;;;5108686;28;20596;-87
2022/04/30 07:36:21;;;;;;;2.10;1.43;;;10.70;99.90;;;;;;5107549;28;21054;-85
2022/04/30 07:38:48;;;;;;;1.63;1.53;;;10.70;99.90;;;;;;5101839;28;20620;-86
2022/04/30 07:41:15;;;;;;;1.77;0.97;;;10.50;99.90;;;;;;5107904;28;21334;-86
2022/04/30 07:43:42;;;;;;;0.40;0.30;;;10.60;99.90;;;;;;5107935;28;20624;-87
2022/04/30 07:46:10;;;;;;;0.77;0.63;;;10.60;99.90;;;;;;5108518;28;20630;-87
2022/04/30 07:48:37;;;;;;;0.97;0.87;;;10.70;99.90;;;;;;5107765;28;20604;-87
2022/04/30 07:51:13;;;;;;;2.40;0.90;;;10.70;99.90;;;;;;5107525;28;20669;-87
2022/04/30 07:53:40;;;;;;;1.87;1.13;;;10.80;99.90;;;;;;5090046;28;20624;-88
2022/04/30 07:56:06;;;;;;;2.03;1.93;;;10.90;99.90;;;;;;5110738;28;20600;-89
2022/04/30 07:58:33;;;;;;;1.43;1.33;;;11.10;99.90;;;;;;5110454;28;20608;-89
2022/04/30 08:01:00;;;;;;;1.37;1.23;;;11.10;99.90;;;;;;5110373;28;20623;-88
2022/04/30 08:03:29;;;;;;;0.60;0.50;;;11.00;99.90;;;;;;5109422;28;20616;-88
2022/04/30 08:05:56;;;;;;;0.93;0.93;;;10.90;99.90;;;;;;5109181;28;20624;-87
2022/04/30 08:08:23;;;;;;;0.80;0.80;;;10.90;99.90;;;;;;5109308;28;20635;-88
2022/04/30 08:10:49;;;;;;;0.80;0.63;;;11.00;99.90;;;;;;5107931;28;20691;-88
2022/04/30 08:13:16;;;;;;;1.83;1.73;;;11.10;99.90;;;;;;5107656;28;20959;-88
2022/04/30 08:15:44;;;;;;;0.63;0.60;;;11.20;99.90;;;;;;5107787;28;20689;-88
2022/04/30 08:18:11;;;;;;;1.80;1.67;;;11.30;99.90;;;;;;5107470;28;20620;-87
2022/04/30 08:20:40;;;;;;;1.20;0.73;;;11.10;99.90;;;;;;5110660;28;20624;-87
2022/04/30 08:23:08;;;;;;;0.93;0.53;;;11.00;99.90;;;;;;5111612;28;20714;-87
2022/04/30 08:25:36;;;;;;;1.67;0.97;;;11.00;99.90;;;;;;5111470;28;20657;-87
2022/04/30 08:28:03;;;;;;;1.87;1.00;;;11.10;99.90;;;;;;5111887;28;21084;-87
2022/04/30 08:30:31;;;;;;;1.73;0.70;;;11.10;99.90;;;;;;5110365;28;20647;-86
2022/04/30 08:32:58;;;;;;;1.00;1.00;;;11.00;99.90;;;;;;5111458;28;20631;-86
2022/04/30 08:35:25;;;;;;;0.70;0.70;;;10.90;99.90;;;;;;5111496;28;20710;-87
2022/04/30 08:37:54;;;;;;;1.63;0.87;;;10.80;99.90;;;;;;5112201;28;20669;-87
2022/04/30 08:40:21;;;;;;;0.57;0.40;;;10.70;99.90;;;;;;5108067;28;20681;-87
2022/04/30 08:42:48;;;;;;;0.50;0.37;;;10.60;99.90;;;;;;5111215;28;20608;-87
2022/04/30 08:45:15;;;;;;;1.50;0.90;;;10.60;99.90;;;;;;5109843;28;21718;-87
2022/04/30 08:47:45;;;;;;;1.37;1.00;;;10.60;99.90;;;;;;5111858;28;20664;-87
2022/04/30 08:50:14;;;;;;;0.73;0.73;;;10.50;99.90;;;;;;5111546;28;21016;-87
2022/04/30 08:52:41;;;;;;;1.60;0.88;;;10.50;99.90;;;;;;5111734;28;20789;-87
2022/04/30 08:55:11;;;;;;;2.57;1.53;;;10.50;99.90;;;;;;5111361;28;20206;-88
2022/04/30 08:57:38;;;;;;;2.97;1.50;;;10.50;99.90;;;;;;5110618;28;21173;-88
2022/04/30 09:00:07;;;;;;;1.10;0.93;;;10.50;99.90;;;;;;5111210;28;20607;-87
2022/04/30 09:02:34;;;;;;;0.70;0.67;;;10.40;99.90;;;;;;5110245;27;20642;-87
2022/04/30 09:05:02;;;;;;;0.40;0.40;;;10.30;99.90;;;;;;5110916;28;20660;-87
2022/04/30 09:07:29;;;;;;;1.07;1.07;;;10.40;99.90;;;;;;5090230;28;20619;-87
2022/04/30 09:09:58;;;;;;;0.50;0.50;;;10.30;99.90;;;;;;5107420;28;20651;-86
2022/04/30 09:12:29;;;;;;;0.60;0.60;;;10.30;99.90;;;;;;5108950;28;21396;-86
2022/04/30 09:14:58;;;;;;;0.90;0.83;;;10.40;99.90;;;;;;5109772;28;20689;-86
2022/04/30 09:17:27;;;;;;;1.63;1.53;;;10.30;99.90;;;;;;5109357;28;20627;-85
2022/04/30 09:19:56;;;;;;;0.50;0.50;;;10.30;99.90;;;;;;5109629;28;20619;-86
2022/04/30 09:22:30;;;;;;;1.37;0.83;;;10.30;99.90;;;;;;5109223;28;20712;-87
2022/04/30 09:24:59;;;;;;;0.63;0.40;;;10.30;99.90;;;;;;5110546;28;20615;-86
2022/04/30 09:27:27;;;;;;;1.53;1.00;;;10.30;99.90;;;;;;5109202;28;20623;-85
2022/04/30 09:29:55;;;;;;;1.83;0.83;;;10.30;99.90;;;;;;5110645;28;20700;-85
2022/04/30 09:32:23;;;;;;;0.60;0.57;;;10.30;99.90;;;;;;5109575;28;20627;-85
2022/04/30 09:37:42;;;;;;;0.63;0.63;;;10.30;99.90;;;;;;5105477;28;20612;-84
2022/04/30 09:40:18;;;;;;;1.23;0.77;;;10.30;99.90;;;;;;5109424;28;21169;-85
2022/04/30 09:42:48;;;;;;;0.93;0.30;;;10.40;99.90;;;;;;5109501;28;21005;-85
2022/04/30 09:45:24;;;;;;;0.30;0.20;;;10.50;99.90;;;;;;5109427;28;20759;-86
2022/04/30 09:47:53;;;;;;;0.30;0.20;;;10.70;99.90;;;;;;5109696;28;20622;-86
2022/04/30 09:55:53;;;;;;;0.60;0.60;;;10.80;99.90;;;;;;5109251;28;20736;-86
2022/04/30 09:58:24;;;;;;;0.30;0.20;;;11.00;99.90;;;;;;5089679;28;20637;-86
2022/04/30 10:00:57;;;;;;;0.60;0.60;;;11.10;99.90;;;;;;5107850;28;20681;-86
2022/04/30 10:03:27;;;;;;;1.53;0.60;;;11.20;99.90;;;;;;5109555;28;21041;-85
2022/04/30 10:06:01;;;;;;;0.30;0.10;;;11.20;99.90;;;;;;5109429;28;20730;-86
2022/04/30 10:08:30;;;;;;;0.40;0.30;;;11.30;99.90;;;;;;5108955;28;20723;-85
2022/04/30 10:11:11;;;;;;;0.30;0.30;;;11.40;99.90;;;;;;5109873;28;20711;-85
2022/04/30 10:13:49;;;;;;;1.80;0.40;;;11.40;99.90;;;;;;5106669;28;21201;-85
2022/04/30 10:16:25;;;;;;;0.83;0.57;;;11.50;99.90;;;;;;5109295;28;20635;-86
2022/04/30 10:19:20;;;;;;;;;;;;;;;;;;;;;
2022/04/30 10:22:10;;;;;;;0.80;0.80;;;11.80;99.90;;;;;;5110263;28;20649;-86
2022/04/30 10:24:48;;;;;;;0.60;0.60;;;11.80;99.90;;;;;;5108645;28;20792;-85
2022/04/30 10:27:16;;;;;;;0.30;0.20;;;11.80;99.90;;;;;;5094561;28;20662;-85
2022/04/30 10:29:55;;;;;;;1.27;0.60;;;11.80;99.90;;;;;;5109040;28;20765;-85
2022/04/30 10:32:30;;;;;;;1.53;1.00;;;11.90;99.90;;;;;;5109279;28;20622;-85
2022/04/30 10:34:57;;;;;;;0.50;0.50;;;12.10;99.90;;;;;;5108926;28;21124;-86
2022/04/30 10:37:29;;;;;;;1.13;1.13;;;12.30;99.90;;;;;;5108787;28;20659;-84
2022/04/30 10:40:01;;;;;;;0.83;0.80;;;12.70;99.90;;;;;;5108013;28;20738;-86
2022/04/30 10:42:32;;;;;;;2.17;1.50;;;13.00;99.90;;;;;;5108944;28;21354;-87
2022/04/30 10:45:00;;;;;;;0.87;0.60;;;12.80;99.90;;;;;;5108728;28;21064;-86
2022/04/30 10:47:27;;;;;;;0.50;0.30;;;12.70;99.90;;;;;;5108762;28;20626;-87
2022/04/30 10:49:55;;;;;;;1.23;0.83;;;12.90;99.90;;;;;;5108617;28;20713;-86
2022/04/30 10:52:24;;;;;;;1.20;1.10;;;13.20;99.90;;;;;;5107777;28;20629;-86
2022/04/30 10:54:54;;;;;;;1.23;0.93;;;13.40;99.90;;;;;;5108634;28;20674;-86
2022/04/30 10:57:21;;;;;;;0.83;0.50;;;13.20;99.90;;;;;;5108261;28;20616;-87
2022/04/30 11:00:01;;;;;;;0.30;0.10;;;13.00;99.90;;;;;;5108334;28;20615;-87
2022/04/30 11:02:32;;;;;;;0.47;0.17;;;12.70;99.90;;;;;;5108290;28;20693;-85
2022/04/30 11:05:00;;;;;;;0.30;0.20;;;12.80;99.90;;;;;;5108684;28;21244;-87
2022/04/30 11:07:29;;;;;;;2.30;0.80;;;12.90;99.90;;;;;;5108007;28;20630;-87
2022/04/30 11:09:56;;;;;;;0.50;0.30;;;12.90;99.90;;;;;;5108309;28;20987;-85
2022/04/30 11:12:30;;;;;;;1.17;1.17;;;13.10;99.90;;;;;;5108882;28;20630;-86
2022/04/30 11:15:00;;;;;;;0.73;0.60;;;13.50;99.90;;;;;;5108322;28;20663;-86
2022/04/30 11:17:27;;;;;;;0.70;0.50;;;13.50;99.90;;;;;;5107859;28;21171;-86
2022/04/30 11:19:55;;;;;;;0.90;0.90;;;14.20;99.90;;;;;;5108407;28;20634;-88
2022/04/30 11:22:23;;;;;;;0.60;0.50;;;14.60;99.90;;;;;;5108360;28;20683;-86
2022/04/30 11:24:50;;;;;;;1.03;0.97;;;14.10;99.80;;;;;;5107402;28;20626;-86
2022/04/30 11:27:17;;;;;;;0.80;0.80;;;13.60;99.90;;;;;;5102209;28;20736;-85
2022/04/30 11:29:52;;;;;;;1.37;0.73;;;13.20;99.90;;;;;;5106156;28;20198;-86
2022/04/30 11:32:24;;;;;;;0.43;0.30;;;13.20;99.90;;;;;;5107081;28;20745;-87
2022/04/30 11:34:51;;;;;;;0.60;0.50;;;13.00;99.90;;;;;;5107134;28;20617;-87
2022/04/30 11:37:18;;;;;;;0.60;0.53;;;12.70;99.90;;;;;;5107209;28;20624;-87
2022/04/30 11:39:45;;;;;;;0.30;0.10;;;12.50;99.90;;;;;;5106427;28;21237;-86
2022/04/30 11:42:12;;;;;;;0.63;0.63;;;12.20;99.90;;;;;;5086416;28;20658;-87
2022/04/30 11:44:39;;;;;;;1.03;0.43;;;12.00;99.90;;;;;;5105484;28;20627;-87
2022/04/30 11:47:08;;;;;;;0.37;0.23;;;12.00;99.90;;;;;;5106633;28;20642;-86
2022/04/30 11:49:37;;;;;;;2.03;0.60;;;12.00;99.90;;;;;;5107818;28;20615;-86
2022/04/30 11:52:05;;;;;;;0.50;0.40;;;12.10;99.90;;;;;;5107307;28;20622;-86
2022/04/30 11:54:36;;;;;;;0.90;0.63;;;12.40;99.90;;;;;;5092837;28;20669;-87
2022/04/30 11:57:04;;;;;;;0.47;0.40;;;12.30;99.90;;;;;;5110322;28;21153;-86
2022/04/30 11:59:32;;;;;;;0.73;0.33;;;12.30;99.90;;;;;;5111967;28;21048;-86
2022/04/30 12:02:04;;;;;;;0.40;0.40;;;12.40;99.90;;;;;;5112873;28;20646;-87
2022/04/30 12:04:35;;;;;;;0.70;0.53;;;12.50;99.90;;;;;;5111884;28;20616;-86
2022/04/30 12:07:06;;;;;;;0.43;0.37;;;13.10;99.90;;;;;;5111776;28;21329;-87
2022/04/30 12:09:37;;;;;;;0.77;0.60;;;13.10;99.90;;;;;;5111667;28;21237;-87
2022/04/30 12:12:16;;;;;;;0.67;0.37;;;13.10;99.90;;;;;;5112440;28;20660;-87
2022/04/30 12:14:44;;;;;;;0.70;0.70;;;12.90;99.90;;;;;;5111725;28;20977;-85
2022/04/30 12:17:11;;;;;;;2.40;1.03;;;12.30;99.90;;;;;;5111579;28;20634;-87
2022/04/30 12:25:12;;;;;;;0.67;0.47;;;12.40;99.90;;;;;;5100213;28;20722;-87
2022/04/30 12:27:40;;;;;;;1.20;1.20;;;12.50;99.90;;;;;;5112021;28;20635;-87
2022/04/30 12:30:13;;;;;;;0.30;0.30;;;12.30;99.90;;;;;;5111203;28;20725;-87
2022/04/30 12:32:48;;;;;;;0.90;0.90;;;12.20;99.50;;;;;;5111583;28;20623;-86
2022/04/30 12:35:16;;;;;;;0.40;0.30;;;12.00;99.90;;;;;;5111665;28;20697;-86
2022/04/30 12:37:44;;;;;;;0.67;0.60;;;12.10;99.70;;;;;;5110965;28;20636;-86
2022/04/30 12:40:12;;;;;;;2.60;0.93;;;12.10;99.90;;;;;;5111004;27;20729;-87
2022/04/30 12:42:40;;;;;;;0.30;0.30;;;12.50;99.90;;;;;;5111402;28;20674;-86
2022/04/30 12:45:08;;;;;;;0.50;0.40;;;13.40;98.80;;;;;;5112127;28;20640;-86
2022/04/30 12:47:35;;;;;;;0.30;0.20;;;12.90;97.70;;;;;;5111278;28;20638;-85
2022/04/30 12:50:02;;;;;;;1.33;0.63;;;12.50;98.00;;;;;;5110845;28;20619;-86
2022/04/30 12:52:28;;;;;;;1.27;1.17;;;12.40;98.90;;;;;;5108988;28;20868;-86
2022/04/30 12:54:57;;;;;;;1.13;0.63;;;12.00;99.90;;;;;;5109531;28;20255;-87
2022/04/30 12:57:24;;;;;;;0.47;0.43;;;12.20;99.90;;;;;;5109642;28;21053;-87
2022/04/30 12:59:53;;;;;;;0.30;0.20;;;11.90;99.20;;;;;;5109986;28;20622;-86
2022/04/30 13:02:23;;;;;;;0.40;0.20;;;12.00;99.20;;;;;;5109554;28;20630;-87
2022/04/30 13:04:51;;;;;;;0.40;0.40;;;12.10;99.10;;;;;;5109667;28;21220;-86
2022/04/30 13:07:19;;;;;;;0.40;0.30;;;12.50;99.90;;;;;;5108842;28;20987;-86
2022/04/30 13:15:16;;;;;;;0.73;0.53;;;12.90;98.10;;;;;;5094603;28;20692;-89
2022/04/30 13:17:43;;;;;;;0.97;0.40;;;13.00;98.20;;;;;;5110399;28;20750;-85
2022/04/30 13:20:11;;;;;;;0.40;0.40;;;13.00;97.00;;;;;;5108805;28;20619;-86
2022/04/30 13:22:38;;;;;;;0.60;0.60;;;13.00;97.10;;;;;;5110290;28;20718;-86
2022/04/30 13:25:06;;;;;;;0.50;0.40;;;12.70;97.20;;;;;;5110291;28;20640;-86
2022/04/30 13:27:35;;;;;;;0.50;0.50;;;12.90;96.90;;;;;;5109909;28;20626;-87
2022/04/30 13:30:02;;;;;;;0.40;0.40;;;13.70;97.10;;;;;;5110122;28;20624;-85
2022/04/30 13:32:29;;;;;;;0.30;0.30;;;14.00;95.80;;;;;;5109654;28;20765;-86
2022/04/30 13:34:56;;;;;;;0.80;0.60;;;14.10;95.80;;;;;;5109807;28;20785;-87
2022/04/30 13:37:22;;;;;;;4.73;0.60;;;14.20;94.80;;;;;;5109361;28;20650;-85
2022/04/30 13:39:49;;;;;;;0.57;0.57;;;13.70;95.20;;;;;;5109934;28;20618;-86
2022/04/30 13:42:16;;;;;;;1.40;1.10;;;13.50;95.60;;;;;;5095172;28;20691;-87
2022/04/30 13:44:45;;;;;;;0.63;0.63;;;13.80;96.20;;;;;;5109732;28;20635;-85